sensor_id;sensor_type;location;lat;lon;timestamp;pressure;altitude;pressure_sealevel;temperature
45034;BMP280;30771;47.988;-4.186;2022-12-18T07:01:09;99009.19;;;5.67
45034;BMP280;30771;47.988;-4.186;2022-12-18T07:03:34;99005.16;;;5.71
45034;BMP280;30771;47.988;-4.186;2022-12-18T07:05:59;98978.84;;;5.79
45034;BMP280;30771;47.988;-4.186;2022-12-18T07:08:25;98973.38;;;5.87
45034;BMP280;30771;47.988;-4.186;2022-12-18T07:10:50;98949.91;;;5.94
45034;BMP280;30771;47.988;-4.186;2022-12-18T07:13:15;98947.03;;;6.02
45034;BMP280;30771;47.988;-4.186;2022-12-18T07:15:41;98934.19;;;6.07
45034;BMP280;30771;47.988;-4.186;2022-12-18T07:18:06;98931.97;;;6.10
45034;BMP280;30771;47.988;-4.186;2022-12-18T07:20:31;98928.72;;;6.15
45034;BMP280;30771;47.988;-4.186;2022-12-18T07:22:56;98931.75;;;6.18
45034;BMP280;30771;47.988;-4.186;2022-12-18T07:25:21;98927.13;;;6.20
45034;BMP280;30771;47.988;-4.186;2022-12-18T07:27:47;98924.91;;;6.24
45034;BMP280;30771;47.988;-4.186;2022-12-18T07:30:12;98919.06;;;6.28
45034;BMP280;30771;47.988;-4.186;2022-12-18T07:32:37;98910.38;;;6.34
45034;BMP280;30771;47.988;-4.186;2022-12-18T07:35:02;98866.63;;;6.54
45034;BMP280;30771;47.988;-4.186;2022-12-18T07:37:27;98805.31;;;7.06
45034;BMP280;30771;47.988;-4.186;2022-12-18T07:39:53;98755.00;;;7.59
45034;BMP280;30771;47.988;-4.186;2022-12-18T07:42:18;98736.59;;;7.95
45034;BMP280;30771;47.988;-4.186;2022-12-18T07:44:43;98736.81;;;8.23
45034;BMP280;30771;47.988;-4.186;2022-12-18T07:47:08;98736.59;;;8.48
45034;BMP280;30771;47.988;-4.186;2022-12-18T07:49:33;98753.06;;;8.66
45034;BMP280;30771;47.988;-4.186;2022-12-18T07:51:58;98749.63;;;8.77
45034;BMP280;30771;47.988;-4.186;2022-12-18T07:54:24;98776.22;;;8.92
45034;BMP280;30771;47.988;-4.186;2022-12-18T07:56:50;98771.88;;;9.09
45034;BMP280;30771;47.988;-4.186;2022-12-18T07:59:15;98754.00;;;9.23
45034;BMP280;30771;47.988;-4.186;2022-12-18T08:01:40;98746.91;;;9.35
45034;BMP280;30771;47.988;-4.186;2022-12-18T08:04:05;98724.84;;;9.48
45034;BMP280;30771;47.988;-4.186;2022-12-18T08:06:30;98714.31;;;9.59
45034;BMP280;30771;47.988;-4.186;2022-12-18T08:08:56;98702.28;;;9.63
45034;BMP280;30771;47.988;-4.186;2022-12-18T08:11:22;98692.66;;;9.69
45034;BMP280;30771;47.988;-4.186;2022-12-18T08:13:47;98674.66;;;9.77
45034;BMP280;30771;47.988;-4.186;2022-12-18T08:16:12;98649.13;;;9.89
45034;BMP280;30771;47.988;-4.186;2022-12-18T08:18:37;98623.47;;;9.96
45034;BMP280;30771;47.988;-4.186;2022-12-18T08:23:34;98591.63;;;10.09
45034;BMP280;30771;47.988;-4.186;2022-12-18T08:25:59;98570.41;;;10.16
45034;BMP280;30771;47.988;-4.186;2022-12-18T08:28:24;98552.28;;;10.19
45034;BMP280;30771;47.988;-4.186;2022-12-18T08:30:51;98523.72;;;10.23
45034;BMP280;30771;47.988;-4.186;2022-12-18T08:33:16;98501.41;;;10.26
45034;BMP280;30771;47.988;-4.186;2022-12-18T08:35:41;98465.94;;;10.33
45034;BMP280;30771;47.988;-4.186;2022-12-18T08:38:07;98428.09;;;10.34
45034;BMP280;30771;47.988;-4.186;2022-12-18T08:40:32;98400.75;;;10.35
45034;BMP280;30771;47.988;-4.186;2022-12-18T08:42:57;98402.59;;;10.35
45034;BMP280;30771;47.988;-4.186;2022-12-18T08:45:22;98385.50;;;10.37
45034;BMP280;30771;47.988;-4.186;2022-12-18T08:47:47;98356.88;;;10.41
45034;BMP280;30771;47.988;-4.186;2022-12-18T08:50:12;98343.50;;;10.42
45034;BMP280;30771;47.988;-4.186;2022-12-18T08:52:38;98340.34;;;10.45
45034;BMP280;30771;47.988;-4.186;2022-12-18T08:55:03;98327.97;;;10.46
45034;BMP280;30771;47.988;-4.186;2022-12-18T08:57:29;98316.69;;;10.45
45034;BMP280;30771;47.988;-4.186;2022-12-18T08:59:54;98307.72;;;10.46
45034;BMP280;30771;47.988;-4.186;2022-12-18T09:02:19;98290.13;;;10.47
45034;BMP280;30771;47.988;-4.186;2022-12-18T09:04:46;98290.38;;;10.45
45034;BMP280;30771;47.988;-4.186;2022-12-18T09:07:11;98274.09;;;10.48
45034;BMP280;30771;47.988;-4.186;2022-12-18T09:09:37;98261.72;;;10.49
45034;BMP280;30771;47.988;-4.186;2022-12-18T09:12:02;98256.47;;;10.49
45034;BMP280;30771;47.988;-4.186;2022-12-18T09:14:27;98237.03;;;10.50
45034;BMP280;30771;47.988;-4.186;2022-12-18T09:16:52;98223.06;;;10.49
45034;BMP280;30771;47.988;-4.186;2022-12-18T09:19:17;98212.56;;;10.49
45034;BMP280;30771;47.988;-4.186;2022-12-18T09:21:42;98215.19;;;10.49
45034;BMP280;30771;47.988;-4.186;2022-12-18T09:24:11;98204.13;;;10.52
45034;BMP280;30771;47.988;-4.186;2022-12-18T09:26:36;98188.09;;;10.54
45034;BMP280;30771;47.988;-4.186;2022-12-18T09:29:02;98189.44;;;10.56
45034;BMP280;30771;47.988;-4.186;2022-12-18T09:31:27;98170.25;;;10.61
45034;BMP280;30771;47.988;-4.186;2022-12-18T09:33:54;98164.22;;;10.65
45034;BMP280;30771;47.988;-4.186;2022-12-18T09:36:19;98165.31;;;10.69
45034;BMP280;30771;47.988;-4.186;2022-12-18T09:38:44;98164.25;;;10.70
45034;BMP280;30771;47.988;-4.186;2022-12-18T09:43:51;98146.94;;;10.79
45034;BMP280;30771;47.988;-4.186;2022-12-18T09:46:28;98145.06;;;10.80
45034;BMP280;30771;47.988;-4.186;2022-12-18T09:48:56;98136.41;;;10.84
45034;BMP280;30771;47.988;-4.186;2022-12-18T09:51:26;98149.31;;;10.86
45034;BMP280;30771;47.988;-4.186;2022-12-18T09:53:55;98149.63;;;10.89
45034;BMP280;30771;47.988;-4.186;2022-12-18T09:56:21;98143.84;;;10.97
45034;BMP280;30771;47.988;-4.186;2022-12-18T09:58:49;98136.44;;;10.99
45034;BMP280;30771;47.988;-4.186;2022-12-18T10:01:22;98153.56;;;11.02
45034;BMP280;30771;47.988;-4.186;2022-12-18T10:03:48;98177.84;;;11.04
45034;BMP280;30771;47.988;-4.186;2022-12-18T10:06:15;98198.91;;;11.09
45034;BMP280;30771;47.988;-4.186;2022-12-18T10:11:36;98207.34;;;11.11
45034;BMP280;30771;47.988;-4.186;2022-12-18T10:16:43;98195.22;;;11.15
45034;BMP280;30771;47.988;-4.186;2022-12-18T10:19:16;98189.97;;;11.15
45034;BMP280;30771;47.988;-4.186;2022-12-18T10:21:48;98191.03;;;11.19
45034;BMP280;30771;47.988;-4.186;2022-12-18T10:24:22;98200.78;;;11.19
45034;BMP280;30771;47.988;-4.186;2022-12-18T10:26:49;98205.78;;;11.20
45034;BMP280;30771;47.988;-4.186;2022-12-18T10:29:15;98200.00;;;11.18
45034;BMP280;30771;47.988;-4.186;2022-12-18T10:31:40;98209.72;;;11.18
45034;BMP280;30771;47.988;-4.186;2022-12-18T10:34:09;98212.09;;;11.19
45034;BMP280;30771;47.988;-4.186;2022-12-18T10:36:36;98208.69;;;11.19
45034;BMP280;30771;47.988;-4.186;2022-12-18T10:39:15;98206.28;;;11.17
45034;BMP280;30771;47.988;-4.186;2022-12-18T10:41:40;98196.03;;;11.15
45034;BMP280;30771;47.988;-4.186;2022-12-18T10:46:37;98208.69;;;11.13
45034;BMP280;30771;47.988;-4.186;2022-12-18T10:49:02;98217.34;;;11.14
45034;BMP280;30771;47.988;-4.186;2022-12-18T10:51:31;98223.69;;;11.13
45034;BMP280;30771;47.988;-4.186;2022-12-18T10:53:59;98222.09;;;11.12
45034;BMP280;30771;47.988;-4.186;2022-12-18T10:56:26;98222.88;;;11.12
45034;BMP280;30771;47.988;-4.186;2022-12-18T10:59:02;98221.06;;;11.13
45034;BMP280;30771;47.988;-4.186;2022-12-18T11:01:28;98223.38;;;11.14
45034;BMP280;30771;47.988;-4.186;2022-12-18T11:06:22;98211.03;;;11.15
45034;BMP280;30771;47.988;-4.186;2022-12-18T11:11:48;98195.53;;;11.19
45034;BMP280;30771;47.988;-4.186;2022-12-18T11:14:24;98213.38;;;11.16
45034;BMP280;30771;47.988;-4.186;2022-12-18T11:16:50;98210.25;;;11.20
45034;BMP280;30771;47.988;-4.186;2022-12-18T11:19:30;98203.97;;;11.21
45034;BMP280;30771;47.988;-4.186;2022-12-18T11:21:56;98217.13;;;11.21
45034;BMP280;30771;47.988;-4.186;2022-12-18T11:24:24;98201.56;;;11.24
45034;BMP280;30771;47.988;-4.186;2022-12-18T11:26:51;98210.28;;;11.25
45034;BMP280;30771;47.988;-4.186;2022-12-18T11:29:17;98201.56;;;11.29
45034;BMP280;30771;47.988;-4.186;2022-12-18T11:31:42;98214.25;;;11.32
45034;BMP280;30771;47.988;-4.186;2022-12-18T11:34:11;98202.69;;;11.33
45034;BMP280;30771;47.988;-4.186;2022-12-18T11:36:46;98211.34;;;11.34
45034;BMP280;30771;47.988;-4.186;2022-12-18T11:39:24;98202.41;;;11.35
45034;BMP280;30771;47.988;-4.186;2022-12-18T11:41:56;98197.69;;;11.37
45034;BMP280;30771;47.988;-4.186;2022-12-18T11:44:24;98197.69;;;11.37
45034;BMP280;30771;47.988;-4.186;2022-12-18T11:47:01;98187.16;;;11.37
45034;BMP280;30771;47.988;-4.186;2022-12-18T11:49:29;98191.63;;;11.41
45034;BMP280;30771;47.988;-4.186;2022-12-18T11:54:41;98185.56;;;11.41
45034;BMP280;30771;47.988;-4.186;2022-12-18T11:57:09;98187.41;;;11.40
45034;BMP280;30771;47.988;-4.186;2022-12-18T11:59:46;98186.34;;;11.41
45034;BMP280;30771;47.988;-4.186;2022-12-18T12:02:17;98182.41;;;11.44
45034;BMP280;30771;47.988;-4.186;2022-12-18T12:07:17;98173.44;;;11.45
45034;BMP280;30771;47.988;-4.186;2022-12-18T12:20:05;98171.88;;;11.54
45034;BMP280;30771;47.988;-4.186;2022-12-18T12:22:42;98158.69;;;11.54
45034;BMP280;30771;47.988;-4.186;2022-12-18T12:41:02;98136.59;;;11.65
45034;BMP280;30771;47.988;-4.186;2022-12-18T12:46:00;98120.78;;;11.70
45034;BMP280;30771;47.988;-4.186;2022-12-18T12:50:56;98111.56;;;11.72
45034;BMP280;30771;47.988;-4.186;2022-12-18T12:53:26;98098.91;;;11.79
45034;BMP280;30771;47.988;-4.186;2022-12-18T12:55:54;98093.84;;;11.83
45034;BMP280;30771;47.988;-4.186;2022-12-18T12:58:26;98103.09;;;11.85
45034;BMP280;30771;47.988;-4.186;2022-12-18T13:05:58;98097.28;;;11.88
45034;BMP280;30771;47.988;-4.186;2022-12-18T13:08:24;98060.38;;;11.88
45034;BMP280;30771;47.988;-4.186;2022-12-18T13:10:50;98074.91;;;11.86
45034;BMP280;30771;47.988;-4.186;2022-12-18T13:13:15;98074.63;;;11.82
45034;BMP280;30771;47.988;-4.186;2022-12-18T13:20:38;98048.28;;;11.82
45034;BMP280;30771;47.988;-4.186;2022-12-18T13:25:45;98037.97;;;11.91
45034;BMP280;30771;47.988;-4.186;2022-12-18T13:28:11;98030.34;;;11.94
45034;BMP280;30771;47.988;-4.186;2022-12-18T13:30:50;98026.38;;;11.97
45034;BMP280;30771;47.988;-4.186;2022-12-18T13:35:41;98027.72;;;11.94
45034;BMP280;30771;47.988;-4.186;2022-12-18T13:38:23;98018.69;;;11.95
45034;BMP280;30771;47.988;-4.186;2022-12-18T13:41:00;98016.59;;;11.97
45034;BMP280;30771;47.988;-4.186;2022-12-18T13:43:27;98015.53;;;11.98
45034;BMP280;30771;47.988;-4.186;2022-12-18T13:46:06;98017.38;;;11.98
45034;BMP280;30771;47.988;-4.186;2022-12-18T13:48:41;98010.28;;;11.98
45034;BMP280;30771;47.988;-4.186;2022-12-18T13:51:13;98005.78;;;11.99
45034;BMP280;30771;47.988;-4.186;2022-12-18T13:53:48;98010.28;;;11.98
45034;BMP280;30771;47.988;-4.186;2022-12-18T13:56:17;98002.09;;;12.00
45034;BMP280;30771;47.988;-4.186;2022-12-18T13:58:43;98004.47;;;12.01
45034;BMP280;30771;47.988;-4.186;2022-12-18T14:01:41;97991.28;;;12.01
45034;BMP280;30771;47.988;-4.186;2022-12-18T14:04:33;97994.69;;;12.02
45034;BMP280;30771;47.988;-4.186;2022-12-18T14:06:52;98007.88;;;12.02
45034;BMP280;30771;47.988;-4.186;2022-12-18T14:09:19;97998.91;;;12.03
45034;BMP280;30771;47.988;-4.186;2022-12-18T14:11:46;98002.34;;;12.03
45034;BMP280;30771;47.988;-4.186;2022-12-18T14:14:13;98012.88;;;12.03
45034;BMP280;30771;47.988;-4.186;2022-12-18T14:16:38;98008.66;;;12.02
45034;BMP280;30771;47.988;-4.186;2022-12-18T14:19:08;98007.88;;;12.02
45034;BMP280;30771;47.988;-4.186;2022-12-18T14:21:35;98007.59;;;12.03
45034;BMP280;30771;47.988;-4.186;2022-12-18T14:24:06;98021.06;;;12.02
45034;BMP280;30771;47.988;-4.186;2022-12-18T14:26:31;98013.16;;;12.02
45034;BMP280;30771;47.988;-4.186;2022-12-18T14:29:01;98012.63;;;12.00
45034;BMP280;30771;47.988;-4.186;2022-12-18T14:31:27;98010.00;;;12.00
45034;BMP280;30771;47.988;-4.186;2022-12-18T14:33:53;98015.25;;;12.00
45034;BMP280;30771;47.988;-4.186;2022-12-18T14:36:19;98003.94;;;11.99
45034;BMP280;30771;47.988;-4.186;2022-12-18T14:38:48;98003.94;;;11.99
45034;BMP280;30771;47.988;-4.186;2022-12-18T14:41:14;98009.47;;;11.98
45034;BMP280;30771;47.988;-4.186;2022-12-18T14:43:40;98003.16;;;11.99
45034;BMP280;30771;47.988;-4.186;2022-12-18T14:46:06;97982.88;;;11.99
45034;BMP280;30771;47.988;-4.186;2022-12-18T14:48:49;97991.28;;;12.01
45034;BMP280;30771;47.988;-4.186;2022-12-18T14:51:15;97990.19;;;12.02
45034;BMP280;30771;47.988;-4.186;2022-12-18T14:53:53;97991.28;;;12.01
45034;BMP280;30771;47.988;-4.186;2022-12-18T14:56:27;97994.44;;;11.98
45034;BMP280;30771;47.988;-4.186;2022-12-18T14:58:59;97996.28;;;11.98
45034;BMP280;30771;47.988;-4.186;2022-12-18T15:01:32;98002.88;;;11.95
45034;BMP280;30771;47.988;-4.186;2022-12-18T15:03:59;97985.03;;;11.87
45034;BMP280;30771;47.988;-4.186;2022-12-18T15:06:36;97996.81;;;11.90
45034;BMP280;30771;47.988;-4.186;2022-12-18T15:09:24;98000.84;;;11.87
45034;BMP280;30771;47.988;-4.186;2022-12-18T15:11:56;98007.44;;;11.85
45034;BMP280;30771;47.988;-4.186;2022-12-18T15:14:39;97993.69;;;11.83
45034;BMP280;30771;47.988;-4.186;2022-12-18T15:17:21;98006.34;;;11.86
45034;BMP280;30771;47.988;-4.186;2022-12-18T15:19:49;98007.94;;;11.87
45034;BMP280;30771;47.988;-4.186;2022-12-18T15:22:25;98005.31;;;11.87
45034;BMP280;30771;47.988;-4.186;2022-12-18T15:24:51;98000.31;;;11.80
45034;BMP280;30771;47.988;-4.186;2022-12-18T15:27:24;98014.75;;;11.88
45034;BMP280;30771;47.988;-4.186;2022-12-18T15:32:38;98009.47;;;11.88
45034;BMP280;30771;47.988;-4.186;2022-12-18T15:35:22;98016.91;;;11.86
45034;BMP280;30771;47.988;-4.186;2022-12-18T15:37:49;98015.56;;;11.88
45034;BMP280;30771;47.988;-4.186;2022-12-18T15:40:19;98003.97;;;11.89
45034;BMP280;30771;47.988;-4.186;2022-12-18T15:42:45;98006.34;;;11.86
45034;BMP280;30771;47.988;-4.186;2022-12-18T15:45:12;98014.75;;;11.88
45034;BMP280;30771;47.988;-4.186;2022-12-18T15:47:37;97990.00;;;11.84
45034;BMP280;30771;47.988;-4.186;2022-12-18T15:50:03;97983.41;;;11.81
45034;BMP280;30771;47.988;-4.186;2022-12-18T15:52:28;97994.47;;;11.88
45034;BMP280;30771;47.988;-4.186;2022-12-18T15:54:54;97975.50;;;11.86
45034;BMP280;30771;47.988;-4.186;2022-12-18T15:57:19;97985.53;;;11.94
45034;BMP280;30771;47.988;-4.186;2022-12-18T15:59:44;97983.09;;;11.98
45034;BMP280;30771;47.988;-4.186;2022-12-18T16:02:16;97980.50;;;11.93
45034;BMP280;30771;47.988;-4.186;2022-12-18T16:04:42;97980.50;;;11.93
45034;BMP280;30771;47.988;-4.186;2022-12-18T16:07:07;97995.47;;;12.02
45034;BMP280;30771;47.988;-4.186;2022-12-18T16:09:32;97997.84;;;12.04
45034;BMP280;30771;47.988;-4.186;2022-12-18T16:11:58;97992.31;;;12.05
45034;BMP280;30771;47.988;-4.186;2022-12-18T16:14:28;97998.59;;;12.09
45034;BMP280;30771;47.988;-4.186;2022-12-18T16:16:59;97991.25;;;12.11
45034;BMP280;30771;47.988;-4.186;2022-12-18T16:19:25;97989.94;;;12.14
45034;BMP280;30771;47.988;-4.186;2022-12-18T16:21:52;97980.41;;;12.13
45034;BMP280;30771;47.988;-4.186;2022-12-18T16:24:20;97996.97;;;12.24
45034;BMP280;30771;47.988;-4.186;2022-12-18T16:26:46;97992.78;;;12.23
45034;BMP280;30771;47.988;-4.186;2022-12-18T16:29:11;97983.53;;;12.20
45034;BMP280;30771;47.988;-4.186;2022-12-18T16:31:37;97979.31;;;12.24
45034;BMP280;30771;47.988;-4.186;2022-12-18T16:34:20;97990.63;;;12.30
45034;BMP280;30771;47.988;-4.186;2022-12-18T16:36:46;97997.16;;;12.37
45034;BMP280;30771;47.988;-4.186;2022-12-18T16:39:11;98011.94;;;12.43
45034;BMP280;30771;47.988;-4.186;2022-12-18T16:41:36;98014.06;;;12.41
45034;BMP280;30771;47.988;-4.186;2022-12-18T16:44:02;98022.72;;;12.47
45034;BMP280;30771;47.988;-4.186;2022-12-18T16:46:28;98073.31;;;12.64
45034;BMP280;30771;47.988;-4.186;2022-12-18T16:48:53;98084.44;;;12.61
45034;BMP280;30771;47.988;-4.186;2022-12-18T16:51:19;98110.00;;;12.70
45034;BMP280;30771;47.988;-4.186;2022-12-18T16:53:44;98126.56;;;12.71
45034;BMP280;30771;47.988;-4.186;2022-12-18T16:56:09;98136.63;;;12.69
45034;BMP280;30771;47.988;-4.186;2022-12-18T16:58:35;98180.94;;;12.82
45034;BMP280;30771;47.988;-4.186;2022-12-18T17:01:00;98185.47;;;12.66
45034;BMP280;30771;47.988;-4.186;2022-12-18T17:03:26;98227.69;;;12.81
45034;BMP280;30771;47.988;-4.186;2022-12-18T17:05:51;98204.78;;;12.62
45034;BMP280;30771;47.988;-4.186;2022-12-18T17:08:16;98260.66;;;12.84
45034;BMP280;30771;47.988;-4.186;2022-12-18T17:10:42;98241.19;;;12.75
45034;BMP280;30771;47.988;-4.186;2022-12-18T17:13:07;98251.19;;;12.78
45034;BMP280;30771;47.988;-4.186;2022-12-18T17:15:36;98254.59;;;12.83
45034;BMP280;30771;47.988;-4.186;2022-12-18T17:18:01;98268.88;;;12.82
45034;BMP280;30771;47.988;-4.186;2022-12-18T17:20:27;98255.94;;;12.71
45034;BMP280;30771;47.988;-4.186;2022-12-18T17:22:52;98260.16;;;12.82
45034;BMP280;30771;47.988;-4.186;2022-12-18T17:25:18;98254.34;;;12.80
45034;BMP280;30771;47.988;-4.186;2022-12-18T17:27:43;98259.38;;;12.81
45034;BMP280;30771;47.988;-4.186;2022-12-18T17:30:09;98250.66;;;12.81
45034;BMP280;30771;47.988;-4.186;2022-12-18T17:32:34;98244.34;;;12.77
45034;BMP280;30771;47.988;-4.186;2022-12-18T17:35:00;98195.53;;;12.59
45034;BMP280;30771;47.988;-4.186;2022-12-18T17:37:25;98192.88;;;12.64
45034;BMP280;30771;47.988;-4.186;2022-12-18T17:39:51;98193.88;;;12.83
45034;BMP280;30771;47.988;-4.186;2022-12-18T17:42:17;98191.00;;;12.80
45034;BMP280;30771;47.988;-4.186;2022-12-18T17:44:43;98155.66;;;12.66
45034;BMP280;30771;47.988;-4.186;2022-12-18T17:47:08;98156.97;;;12.68
45034;BMP280;30771;47.988;-4.186;2022-12-18T17:49:33;98135.59;;;12.70
45034;BMP280;30771;47.988;-4.186;2022-12-18T17:51:58;98150.06;;;12.82
45034;BMP280;30771;47.988;-4.186;2022-12-18T17:54:24;98113.69;;;12.64
45034;BMP280;30771;47.988;-4.186;2022-12-18T17:56:49;98120.25;;;12.72
45034;BMP280;30771;47.988;-4.186;2022-12-18T17:59:14;98112.63;;;12.70
45034;BMP280;30771;47.988;-4.186;2022-12-18T18:01:40;98073.91;;;12.56
45034;BMP280;30771;47.988;-4.186;2022-12-18T18:04:05;98070.44;;;12.60
45034;BMP280;30771;47.988;-4.186;2022-12-18T18:06:30;98083.63;;;12.60
45034;BMP280;30771;47.988;-4.186;2022-12-18T18:08:56;98045.63;;;12.56
45034;BMP280;30771;47.988;-4.186;2022-12-18T18:11:22;98048.25;;;12.61
45034;BMP280;30771;47.988;-4.186;2022-12-18T18:13:48;98037.44;;;12.58
45034;BMP280;30771;47.988;-4.186;2022-12-18T18:16:13;98013.78;;;12.43
45034;BMP280;30771;47.988;-4.186;2022-12-18T18:18:38;98019.22;;;12.61
45034;BMP280;30771;47.988;-4.186;2022-12-18T18:21:05;98015.00;;;12.60
45034;BMP280;30771;47.988;-4.186;2022-12-18T18:23:31;98012.38;;;12.60
45034;BMP280;30771;47.988;-4.186;2022-12-18T18:26:05;98007.88;;;12.61
45034;BMP280;30771;47.988;-4.186;2022-12-18T18:28:30;97977.34;;;12.50
45034;BMP280;30771;47.988;-4.186;2022-12-18T18:30:56;98002.81;;;12.64
45034;BMP280;30771;47.988;-4.186;2022-12-18T18:33:21;97983.28;;;12.65
45034;BMP280;30771;47.988;-4.186;2022-12-18T18:35:47;97968.03;;;12.62
45034;BMP280;30771;47.988;-4.186;2022-12-18T18:38:12;97943.28;;;12.53
45034;BMP280;30771;47.988;-4.186;2022-12-18T18:40:38;97945.59;;;12.60
45034;BMP280;30771;47.988;-4.186;2022-12-18T18:43:03;97940.00;;;12.66
45034;BMP280;30771;47.988;-4.186;2022-12-18T18:45:28;97947.06;;;12.71
45034;BMP280;30771;47.988;-4.186;2022-12-18T18:47:53;97941.53;;;12.72
45034;BMP280;30771;47.988;-4.186;2022-12-18T18:50:19;97910.75;;;12.63
45034;BMP280;30771;47.988;-4.186;2022-12-18T18:52:44;97933.88;;;12.71
45034;BMP280;30771;47.988;-4.186;2022-12-18T18:55:09;97891.22;;;12.59
45034;BMP280;30771;47.988;-4.186;2022-12-18T18:57:35;97911.47;;;12.68
45034;BMP280;30771;47.988;-4.186;2022-12-18T19:00:00;97893.00;;;12.68
45034;BMP280;30771;47.988;-4.186;2022-12-18T19:02:26;97877.94;;;12.69
45034;BMP280;30771;47.988;-4.186;2022-12-18T19:04:51;97908.53;;;12.75
45034;BMP280;30771;47.988;-4.186;2022-12-18T19:07:16;97899.34;;;12.67
45034;BMP280;30771;47.988;-4.186;2022-12-18T19:09:42;97896.63;;;12.77
45034;BMP280;30771;47.988;-4.186;2022-12-18T19:12:08;97890.00;;;12.80
45034;BMP280;30771;47.988;-4.186;2022-12-18T19:14:33;97867.09;;;12.75
45034;BMP280;30771;47.988;-4.186;2022-12-18T19:16:58;97890.47;;;12.87
45034;BMP280;30771;47.988;-4.186;2022-12-18T19:19:23;97872.09;;;12.77
45034;BMP280;30771;47.988;-4.186;2022-12-18T19:21:49;97876.28;;;12.83
45034;BMP280;30771;47.988;-4.186;2022-12-18T19:24:14;97873.03;;;12.86
45034;BMP280;30771;47.988;-4.186;2022-12-18T19:26:39;97880.09;;;12.90
45034;BMP280;30771;47.988;-4.186;2022-12-18T19:29:07;97891.28;;;12.87
45034;BMP280;30771;47.988;-4.186;2022-12-18T19:31:33;97892.72;;;12.98
45034;BMP280;30771;47.988;-4.186;2022-12-18T19:33:59;97877.97;;;12.97
45034;BMP280;30771;47.988;-4.186;2022-12-18T19:36:26;97867.41;;;12.97
45034;BMP280;30771;47.988;-4.186;2022-12-18T19:38:53;97880.53;;;13.07
45034;BMP280;30771;47.988;-4.186;2022-12-18T19:41:19;97882.88;;;13.09
45034;BMP280;30771;47.988;-4.186;2022-12-18T19:43:45;97875.44;;;13.11
45034;BMP280;30771;47.988;-4.186;2022-12-18T19:46:14;97877.03;;;13.12
45034;BMP280;30771;47.988;-4.186;2022-12-18T19:48:42;97868.03;;;13.13
45034;BMP280;30771;47.988;-4.186;2022-12-18T19:53:40;97879.63;;;13.17
45034;BMP280;30771;47.988;-4.186;2022-12-18T19:56:07;97876.22;;;13.11
45034;BMP280;30771;47.988;-4.186;2022-12-18T19:58:33;97885.41;;;13.19
45034;BMP280;30771;47.988;-4.186;2022-12-18T20:00:58;97895.19;;;13.18
45034;BMP280;30771;47.988;-4.186;2022-12-18T20:03:24;97876.63;;;13.23
45034;BMP280;30771;47.988;-4.186;2022-12-18T20:05:49;97907.50;;;13.28
45034;BMP280;30771;47.988;-4.186;2022-12-18T20:08:14;97918.88;;;13.29
45034;BMP280;30771;47.988;-4.186;2022-12-18T20:10:39;97904.63;;;13.24
45034;BMP280;30771;47.988;-4.186;2022-12-18T20:13:05;97933.06;;;13.33
45034;BMP280;30771;47.988;-4.186;2022-12-18T20:15:30;97942.84;;;13.32
45034;BMP280;30771;47.988;-4.186;2022-12-18T20:17:56;97934.47;;;13.25
45034;BMP280;30771;47.988;-4.186;2022-12-18T20:20:21;97937.16;;;13.20
45034;BMP280;30771;47.988;-4.186;2022-12-18T20:22:46;97991.16;;;13.38
45034;BMP280;30771;47.988;-4.186;2022-12-18T20:25:12;97996.50;;;13.33
45034;BMP280;30771;47.988;-4.186;2022-12-18T20:27:37;98014.41;;;13.41
45034;BMP280;30771;47.988;-4.186;2022-12-18T20:30:03;98008.19;;;13.27
45034;BMP280;30771;47.988;-4.186;2022-12-18T20:32:29;98034.50;;;13.37
45034;BMP280;30771;47.988;-4.186;2022-12-18T20:34:54;98032.47;;;13.29
45034;BMP280;30771;47.988;-4.186;2022-12-18T20:37:19;98073.59;;;13.40
45034;BMP280;30771;47.988;-4.186;2022-12-18T20:39:45;98066.22;;;13.37
45034;BMP280;30771;47.988;-4.186;2022-12-18T20:42:10;98082.38;;;13.35
45034;BMP280;30771;47.988;-4.186;2022-12-18T20:44:35;98124.78;;;13.49
45034;BMP280;30771;47.988;-4.186;2022-12-18T20:47:01;98121.72;;;13.37
45034;BMP280;30771;47.988;-4.186;2022-12-18T20:49:26;98150.16;;;13.50
45034;BMP280;30771;47.988;-4.186;2022-12-18T20:51:54;98164.44;;;13.49
45034;BMP280;30771;47.988;-4.186;2022-12-18T20:54:21;98175.31;;;13.42
45034;BMP280;30771;47.988;-4.186;2022-12-18T20:56:46;98207.25;;;13.51
45034;BMP280;30771;47.988;-4.186;2022-12-18T20:59:12;98212.06;;;13.44
45034;BMP280;30771;47.988;-4.186;2022-12-18T21:01:37;98225.53;;;13.47
45034;BMP280;30771;47.988;-4.186;2022-12-18T21:04:03;98249.56;;;13.51
45034;BMP280;30771;47.988;-4.186;2022-12-18T21:06:28;98239.84;;;13.41
45034;BMP280;30771;47.988;-4.186;2022-12-18T21:08:54;98266.78;;;13.43
45034;BMP280;30771;47.988;-4.186;2022-12-18T21:13:44;98285.53;;;13.47
45034;BMP280;30771;47.988;-4.186;2022-12-18T21:16:09;98278.38;;;13.42
45034;BMP280;30771;47.988;-4.186;2022-12-18T21:18:35;98277.66;;;13.37
45034;BMP280;30771;47.988;-4.186;2022-12-18T21:21:00;98307.19;;;13.54
45034;BMP280;30771;47.988;-4.186;2022-12-18T21:23:25;98315.13;;;13.54
45034;BMP280;30771;47.988;-4.186;2022-12-18T21:25:50;98326.19;;;13.56
45034;BMP280;30771;47.988;-4.186;2022-12-18T21:28:16;98347.06;;;13.57
45034;BMP280;30771;47.988;-4.186;2022-12-18T21:30:41;98359.44;;;13.62
45034;BMP280;30771;47.988;-4.186;2022-12-18T21:33:06;98335.19;;;13.50
45034;BMP280;30771;47.988;-4.186;2022-12-18T21:35:32;98344.69;;;13.56
45034;BMP280;30771;47.988;-4.186;2022-12-18T21:37:57;98361.59;;;13.55
45034;BMP280;30771;47.988;-4.186;2022-12-18T21:40:23;98371.38;;;13.59
45034;BMP280;30771;47.988;-4.186;2022-12-18T21:42:48;98351.84;;;13.50
45034;BMP280;30771;47.988;-4.186;2022-12-18T21:45:13;98367.41;;;13.57
45034;BMP280;30771;47.988;-4.186;2022-12-18T21:47:39;98377.19;;;13.61
45034;BMP280;30771;47.988;-4.186;2022-12-18T21:50:05;98383.03;;;13.58
45034;BMP280;30771;47.988;-4.186;2022-12-18T21:52:30;98383.03;;;13.58
45034;BMP280;30771;47.988;-4.186;2022-12-18T21:54:55;98380.59;;;13.62
45034;BMP280;30771;47.988;-4.186;2022-12-18T21:57:21;98370.63;;;13.54
45034;BMP280;30771;47.988;-4.186;2022-12-18T21:59:46;98375.59;;;13.65
45034;BMP280;30771;47.988;-4.186;2022-12-18T22:02:12;98395.91;;;13.70
45034;BMP280;30771;47.988;-4.186;2022-12-18T22:04:39;98385.13;;;13.66
45034;BMP280;30771;47.988;-4.186;2022-12-18T22:07:05;98396.16;;;13.73
45034;BMP280;30771;47.988;-4.186;2022-12-18T22:09:31;98396.66;;;13.80
45034;BMP280;30771;47.988;-4.186;2022-12-18T22:11:57;98387.41;;;13.83
45034;BMP280;30771;47.988;-4.186;2022-12-18T22:14:22;98373.13;;;13.74